Time;durP1;ratioP1;P1;durP2;ratioP2;P2;SDS_P1;SDS_P2;PMS_P1;PMS_P2;Temp;Humidity;BMP_temperature;BMP_pressure;BME280_temperature;BME280_humidity;BME280_pressure;Samples;Min_cycle;Max_cycle;Signal;HPM_P1;HPM_P2
2020/06/20 19:22:09;;;;;;;-1.701412E+38;-2.262441E-39;;;;;;;23.49;49.05469;966.9053;;;;
2020/06/20 19:37:26;;;;;;;-1.701412E+38;-2.262441E-39;;;;;;;24.01;47.00879;966.9902;;;;
2020/06/20 19:42:15;;;;;;;-1.701412E+38;-2.262441E-39;;;;;;;23.92;47.62402;967.0112;;;;
2020/06/20 19:44:39;;;;;;;-1.701412E+38;-2.262441E-39;;;;;;;23.73;48.3125;967.0391;;;;
2020/06/20 19:49:20;;;;;;;1.960949;-2.262441E-39;;;;;;;23.11;51.14844;967.0661;;;;
2020/06/20 19:51:46;;;;;;;1.960949;-2.262441E-39;;;;;;;22.9;52.05957;967.0734;;;;
2020/06/20 19:54:11;;;;;;;1.960949;-2.262441E-39;;;;;;;22.75;52.10254;967.0789;;;;
2020/06/20 19:56:36;;;;;;;1.960949;-2.262441E-39;;;;;;;22.74;52.38867;967.0564;;;;
2020/06/20 19:59:01;;;;;;;1.960949;-2.262441E-39;;;;;;;22.72;52.625;967.0402;;;;
2020/06/20 20:01:26;;;;;;;1.960949;-2.262441E-39;;;;;;;22.72;52.31348;967.0402;;;;
2020/06/20 20:03:51;;;;;;;1.960949;-2.262441E-39;;;;;;;22.8;51.6875;967.0181;;;;
2020/06/20 20:06:16;;;;;;;1.960949;-2.262441E-39;;;;;;;23.23;49.97363;967.0153;;;;
2020/06/20 20:08:42;;;;;;;1.960949;-2.262441E-39;;;;;;;23.28;50.8916;966.9972;;;;
2020/06/20 20:11:06;;;;;;;1.960949;-2.262441E-39;;;;;;;22.6;51.71289;966.9727;;;;
2020/06/20 20:14:02;;;;;;;-1.701412E+38;-2.262441E-39;;;;;;;22.13;53.51563;966.9736;;;;
2020/06/20 20:16:27;;;;;;;-1.701412E+38;-2.262441E-39;;;;;;;22.4;53.81055;966.9172;;;;
2020/06/20 20:18:52;;;;;;;-1.701412E+38;-2.262441E-39;;;;;;;22.52;52.56641;966.9409;;;;
2020/06/20 20:21:19;;;;;;;-1.701412E+38;-2.262441E-39;;;;;;;22.46;52.45117;966.9631;;;;
2020/06/20 20:23:43;;;;;;;-1.701412E+38;-2.262441E-39;;;;;;;22.55;52.45117;966.9489;;;;
2020/06/20 20:26:09;;;;;;;-1.701412E+38;-2.262441E-39;;;;;;;22.76;51.51563;966.9974;;;;
2020/06/20 20:28:32;;;;;;;-1.701412E+38;-2.262441E-39;;;;;;;22.77;51.94824;966.9867;;;;
2020/06/20 20:30:57;;;;;;;-1.701412E+38;-2.262441E-39;;;;;;;22.68;52.23828;967;;;;
2020/06/20 20:33:23;;;;;;;-1.701412E+38;-2.262441E-39;;;;;;;22.63;51.78809;967.0075;;;;
2020/06/20 20:35:48;;;;;;;-1.701412E+38;-2.262441E-39;;;;;;;22.63;51.9082;967.0317;;;;
2020/06/20 20:38:13;;;;;;;-1.701412E+38;-2.262441E-39;;;;;;;22.67;51.90137;967.0709;;;;
2020/06/20 20:40:38;;;;;;;-1.701412E+38;-2.262441E-39;;;;;;;22.73;52.03906;967.0881;;;;
2020/06/20 20:43:03;;;;;;;-1.701412E+38;-2.262441E-39;;;;;;;22.74;51.87305;967.1053;;;;
2020/06/20 20:45:28;;;;;;;-1.701412E+38;-2.262441E-39;;;;;;;22.78;52.69336;967.1401;;;;
2020/06/20 20:47:53;;;;;;;-1.701412E+38;-2.262441E-39;;;;;;;22.83;52.56641;967.1703;;;;
2020/06/20 20:50:18;;;;;;;-1.701412E+38;-2.262441E-39;;;;;;;22.82;52.12207;967.1564;;;;
2020/06/20 20:52:43;;;;;;;-1.701412E+38;-2.262441E-39;;;;;;;22.85;51.84961;967.1422;;;;
2020/06/20 20:55:08;;;;;;;-1.701412E+38;-2.262441E-39;;;;;;;22.87;51.91211;967.1526;;;;
2020/06/20 20:57:33;;;;;;;-1.701412E+38;-2.262441E-39;;;;;;;22.87;51.87695;967.1891;;;;
2020/06/20 20:59:59;;;;;;;-1.701412E+38;-2.262441E-39;;;;;;;22.9;51.92773;967.198;;;;
2020/06/20 21:02:23;;;;;;;-1.701412E+38;-2.262441E-39;;;;;;;23.01;51.66406;967.209;;;;
2020/06/20 21:04:49;;;;;;;-1.701412E+38;-2.262441E-39;;;;;;;23.06;51.52637;967.2395;;;;
2020/06/20 21:07:14;;;;;;;-1.701412E+38;-2.262441E-39;;;;;;;23.06;51.52637;967.2578;;;;
2020/06/20 21:09:39;;;;;;;-1.701412E+38;-2.262441E-39;;;;;;;23.24;51.03223;967.2965;;;;
2020/06/20 21:12:04;;;;;;;-1.701412E+38;-2.262441E-39;;;;;;;23.17;51.16797;967.3022;;;;
2020/06/20 21:14:29;;;;;;;-1.701412E+38;-2.262441E-39;;;;;;;23.2;51.19531;967.3259;;;;
2020/06/20 21:16:54;;;;;;;-1.701412E+38;-2.262441E-39;;;;;;;23.22;51.08984;967.3282;;;;
2020/06/20 21:19:19;;;;;;;-1.701412E+38;-2.262441E-39;;;;;;;23.24;51.12793;967.3555;;;;
2020/06/20 21:21:44;;;;;;;-1.701412E+38;-2.262441E-39;;;;;;;23.23;51.12598;967.3647;;;;
2020/06/20 21:24:10;;;;;;;-1.701412E+38;-2.262441E-39;;;;;;;23.27;50.91406;967.3439;;;;
2020/06/20 21:26:35;;;;;;;-1.701412E+38;-2.262441E-39;;;;;;;23.25;51.05664;967.3234;;;;
2020/06/20 21:29:00;;;;;;;-1.701412E+38;-2.262441E-39;;;;;;;23.24;52.6748;967.3013;;;;
2020/06/20 21:31:25;;;;;;;-1.701412E+38;-2.262441E-39;;;;;;;23.04;53.50293;967.3392;;;;
2020/06/20 21:33:51;;;;;;;-1.701412E+38;-2.262441E-39;;;;;;;22.91;53.76367;967.317;;;;
2020/06/20 21:36:15;;;;;;;-1.701412E+38;-2.262441E-39;;;;;;;22.87;53.6748;967.2898;;;;
2020/06/20 21:38:41;;;;;;;-1.701412E+38;-2.262441E-39;;;;;;;22.83;53.4541;967.3542;;;;
2020/06/20 21:41:06;;;;;;;-1.701412E+38;-2.262441E-39;;;;;;;22.8;53.41602;967.3551;;;;
2020/06/20 21:43:31;;;;;;;-1.701412E+38;-2.262441E-39;;;;;;;22.78;53.05273;967.3636;;;;
2020/06/20 21:45:56;;;;;;;-1.701412E+38;-2.262441E-39;;;;;;;22.76;50.53223;967.3725;;;;
2020/06/20 21:48:21;;;;;;;-1.701412E+38;-2.262441E-39;;;;;;;22.72;49.97754;967.3882;;;;
2020/06/20 21:50:46;;;;;;;-1.701412E+38;-2.262441E-39;;;;;;;22.63;50.24316;967.3781;;;;
2020/06/20 21:53:11;;;;;;;-1.701412E+38;-2.262441E-39;;;;;;;22.56;50.25781;967.3926;;;;
2020/06/20 21:55:36;;;;;;;-1.701412E+38;-2.262441E-39;;;;;;;22.54;50.44727;967.4441;;;;
2020/06/20 21:58:02;;;;;;;-1.701412E+38;-2.262441E-39;;;;;;;22.51;50.44336;967.4733;;;;
2020/06/20 22:00:26;;;;;;;-1.701412E+38;-2.262441E-39;;;;;;;22.47;50.5957;967.4564;;;;
2020/06/20 22:02:52;;;;;;;-1.701412E+38;-2.262441E-39;;;;;;;22.44;50.34082;967.5073;;;;
2020/06/20 22:05:17;;;;;;;-1.701412E+38;-2.262441E-39;;;;;;;22.48;50.47656;967.5179;;;;
2020/06/20 22:07:42;;;;;;;-1.701412E+38;-2.262441E-39;;;;;;;22.39;50.11914;967.5218;;;;
2020/06/20 22:10:08;;;;;;;-1.701412E+38;-2.262441E-39;;;;;;;22.34;50.3291;967.5148;;;;
2020/06/20 22:12:33;;;;;;;-1.701412E+38;-2.262441E-39;;;;;;;22.36;52.24805;967.5414;;;;
2020/06/20 22:14:58;;;;;;;-1.701412E+38;-2.262441E-39;;;;;;;22.38;52.50195;967.5483;;;;
2020/06/20 22:17:24;;;;;;;-1.701412E+38;-2.262441E-39;;;;;;;22.37;52.39355;967.5444;;;;
2020/06/20 22:19:48;;;;;;;-1.701412E+38;-2.262441E-39;;;;;;;22.33;52.41309;967.4864;;;;
2020/06/20 22:22:15;;;;;;;-1.701412E+38;-2.262441E-39;;;;;;;22.32;52.47168;967.4753;;;;
2020/06/20 22:24:39;;;;;;;-1.701412E+38;-2.262441E-39;;;;;;;22.3;52.52832;967.4839;;;;
2020/06/20 22:27:04;;;;;;;-1.701412E+38;-2.262441E-39;;;;;;;22.3;52.54102;967.4689;;;;
2020/06/20 22:29:29;;;;;;;-1.701412E+38;-2.262441E-39;;;;;;;22.29;52.66992;967.4551;;;;
2020/06/20 22:31:54;;;;;;;-1.701412E+38;-2.262441E-39;;;;;;;22.28;52.74219;967.4638;;;;
2020/06/20 22:34:20;;;;;;;-1.701412E+38;-2.262441E-39;;;;;;;22.23;52.9873;967.4647;;;;
2020/06/20 22:36:45;;;;;;;-1.701412E+38;-2.262441E-39;;;;;;;22.23;53.08301;967.4773;;;;
2020/06/20 22:39:10;;;;;;;-1.701412E+38;-2.262441E-39;;;;;;;22.21;53.12891;967.4615;;;;
2020/06/20 22:41:35;;;;;;;-1.701412E+38;-2.262441E-39;;;;;;;22.19;53.27051;967.4648;;;;
2020/06/20 22:44:00;;;;;;;-1.701412E+38;-2.262441E-39;;;;;;;22.19;53.3418;967.4988;;;;
2020/06/20 22:46:25;;;;;;;-1.701412E+38;-2.262441E-39;;;;;;;22.19;53.38867;967.5114;;;;
2020/06/20 22:48:50;;;;;;;-1.701412E+38;-2.262441E-39;;;;;;;22.14;53.5752;967.5322;;;;
2020/06/20 22:51:15;;;;;;;-1.701412E+38;-2.262441E-39;;;;;;;22.14;53.5752;967.4871;;;;
2020/06/20 22:53:40;;;;;;;-1.701412E+38;-2.262441E-39;;;;;;;22.14;53.6709;967.546;;;;
2020/06/20 22:56:05;;;;;;;-1.701412E+38;-2.262441E-39;;;;;;;22.13;53.74121;967.5429;;;;
2020/06/20 22:58:30;;;;;;;-1.701412E+38;-2.262441E-39;;;;;;;22.12;53.85938;967.5739;;;;
2020/06/20 23:00:55;;;;;;;-1.701412E+38;-2.262441E-39;;;;;;;22.11;53.87109;967.5524;;;;
2020/06/20 23:03:21;;;;;;;-1.701412E+38;-2.262441E-39;;;;;;;22.09;54.02344;967.5596;;;;
2020/06/20 23:05:46;;;;;;;-1.701412E+38;-2.262441E-39;;;;;;;22.08;53.97461;967.5695;;;;
2020/06/20 23:08:16;;;;;;;-1.701412E+38;-2.262441E-39;;;;;;;22.07;54.16406;967.6051;;;;
2020/06/20 23:10:40;;;;;;;-1.701412E+38;-2.262441E-39;;;;;;;22.06;54.23535;967.5795;;;;
2020/06/20 23:13:05;;;;;;;-1.701412E+38;-2.262441E-39;;;;;;;22.06;54.25977;967.5815;;;;
2020/06/20 23:15:30;;;;;;;-1.701412E+38;-2.262441E-39;;;;;;;22.05;54.35449;967.5754;;;;
2020/06/20 23:17:57;;;;;;;-1.701412E+38;-2.262441E-39;;;;;;;22.05;54.39063;967.5533;;;;
2020/06/20 23:20:21;;;;;;;-1.701412E+38;-2.262441E-39;;;;;;;22.04;54.47168;967.5372;;;;
2020/06/20 23:22:46;;;;;;;-1.701412E+38;-2.262441E-39;;;;;;;22.01;54.66016;967.5204;;;;
2020/06/20 23:25:12;;;;;;;-1.701412E+38;-2.262441E-39;;;;;;;21.98;54.64453;967.5742;;;;
2020/06/20 23:27:37;;;;;;;-1.701412E+38;-2.262441E-39;;;;;;;21.99;54.65918;967.5705;;;;
2020/06/20 23:30:02;;;;;;;-1.701412E+38;-2.262441E-39;;;;;;;22.01;54.67188;967.6008;;;;
2020/06/20 23:32:27;;;;;;;-1.701412E+38;-2.262441E-39;;;;;;;22;54.69629;967.597;;;;
2020/06/20 23:34:52;;;;;;;-1.701412E+38;-2.262441E-39;;;;;;;21.99;54.75293;967.6166;;;;
2020/06/20 23:37:17;;;;;;;-1.701412E+38;-2.262441E-39;;;;;;;21.96;54.8584;967.606;;;;
2020/06/20 23:39:42;;;;;;;-1.701412E+38;-2.262441E-39;;;;;;;21.97;54.88184;967.6154;;;;
2020/06/20 23:42:07;;;;;;;-1.701412E+38;-2.262441E-39;;;;;;;21.96;54.91797;967.5736;;;;
2020/06/20 23:44:32;;;;;;;-1.701412E+38;-2.262441E-39;;;;;;;21.97;54.94238;967.5148;;;;
2020/06/20 23:46:58;;;;;;;-1.701412E+38;-2.262441E-39;;;;;;;21.94;55.01074;967.5283;;;;
2020/06/20 23:49:23;;;;;;;-1.701412E+38;-2.262441E-39;;;;;;;21.93;55.05762;967.504;;;;
2020/06/20 23:51:48;;;;;;;-1.701412E+38;-2.262441E-39;;;;;;;21.91;55.15039;967.4863;;;;
2020/06/20 23:54:13;;;;;;;-1.701412E+38;-2.262441E-39;;;;;;;21.92;55.20117;967.4735;;;;
2020/06/20 23:56:38;;;;;;;-1.701412E+38;-2.262441E-39;;;;;;;21.92;55.24902;967.4581;;;;
2020/06/20 23:59:03;;;;;;;-1.701412E+38;-2.262441E-39;;;;;;;21.91;55.27051;967.4153;;;;
